createdAt,value
2019-02-08T00:00:32.563Z,993.98
2019-02-08T00:01:32.553Z,993.96
2019-02-08T00:02:32.548Z,993.95
2019-02-08T00:03:32.502Z,993.95
2019-02-08T00:04:32.484Z,993.90
2019-02-08T00:05:32.479Z,993.88
2019-02-08T00:06:32.460Z,993.84
2019-02-08T00:07:32.442Z,993.84
2019-02-08T00:08:32.412Z,993.78
2019-02-08T00:09:32.798Z,993.77
2019-02-08T00:10:32.364Z,993.78
2019-02-08T00:11:32.355Z,993.70
2019-02-08T00:12:32.342Z,993.69
2019-02-08T00:13:32.316Z,993.74
2019-02-08T00:14:32.298Z,993.76
2019-02-08T00:15:32.279Z,993.76
2019-02-08T00:16:32.260Z,993.76
2019-02-08T00:17:33.809Z,993.73
2019-02-08T00:18:33.195Z,993.80
2019-02-08T00:19:32.199Z,993.80
2019-02-08T00:20:32.185Z,993.76
2019-02-08T00:21:32.166Z,993.78
2019-02-08T00:22:32.142Z,993.81
2019-02-08T00:23:32.145Z,993.83
2019-02-08T00:24:32.104Z,993.78
2019-02-08T00:25:32.085Z,993.82
2019-02-08T00:26:32.590Z,993.80
2019-02-08T00:27:32.052Z,993.80
2019-02-08T00:28:32.028Z,993.80
2019-02-08T00:29:32.013Z,993.87
2019-02-08T00:30:31.995Z,993.84
2019-02-08T00:31:31.969Z,993.84
2019-02-08T00:32:31.963Z,993.82
2019-02-08T00:33:31.941Z,993.82
2019-02-08T00:34:31.913Z,993.81
2019-02-08T00:35:31.893Z,993.86
2019-02-08T00:36:31.891Z,993.83
2019-02-08T00:37:31.869Z,993.87
2019-02-08T00:38:31.848Z,993.90
2019-02-08T00:39:31.818Z,993.86
2019-02-08T00:40:31.799Z,993.88
2019-02-08T00:41:31.776Z,993.88
2019-02-08T00:42:31.761Z,993.88
2019-02-08T00:43:31.760Z,993.84
2019-02-08T00:44:31.720Z,993.87
2019-02-08T00:45:31.703Z,993.92
2019-02-08T00:46:31.680Z,993.87
2019-02-08T00:47:31.656Z,993.91
2019-02-08T00:48:31.644Z,993.92
2019-02-08T00:49:31.627Z,993.92
2019-02-08T00:50:31.606Z,993.97
2019-02-08T00:51:31.587Z,993.91
2019-02-08T00:52:31.566Z,993.92
2019-02-08T00:53:33.580Z,993.91
2019-02-08T00:54:31.538Z,993.89
2019-02-08T00:55:31.510Z,993.90
2019-02-08T00:56:31.492Z,993.86
2019-02-08T00:57:31.470Z,993.90
2019-02-08T00:58:31.451Z,993.89
2019-02-08T00:59:31.431Z,993.88
2019-02-08T01:00:31.413Z,993.91
2019-02-08T01:01:31.401Z,993.91
2019-02-08T01:02:31.376Z,993.87
2019-02-08T01:03:31.351Z,993.85
2019-02-08T01:04:31.340Z,993.90
2019-02-08T01:05:31.319Z,993.90
2019-02-08T01:06:31.302Z,993.91
2019-02-08T01:07:31.281Z,993.90
2019-02-08T01:08:31.274Z,993.96
2019-02-08T01:09:31.243Z,993.97
2019-02-08T01:10:31.221Z,993.99
2019-02-08T01:11:31.203Z,994.05
2019-02-08T01:12:31.189Z,994.04
2019-02-08T01:13:31.158Z,993.98
2019-02-08T01:14:31.146Z,993.99
2019-02-08T01:15:31.129Z,994.02
2019-02-08T01:16:31.109Z,994.02
2019-02-08T01:17:31.088Z,994.06
2019-02-08T01:18:31.071Z,994.02
2019-02-08T01:19:31.059Z,994.04
2019-02-08T01:20:31.030Z,993.95
2019-02-08T01:21:31.018Z,993.96
2019-02-08T01:22:30.993Z,993.98
2019-02-08T01:23:30.974Z,994.00
2019-02-08T01:24:30.952Z,993.98
2019-02-08T01:25:30.945Z,994.00
2019-02-08T01:26:30.917Z,993.95
2019-02-08T01:27:30.900Z,993.97
2019-02-08T01:28:30.882Z,993.96
2019-02-08T01:29:30.862Z,993.96
2019-02-08T01:30:30.841Z,993.99
2019-02-08T01:31:30.819Z,993.92
2019-02-08T01:32:30.800Z,993.95
2019-02-08T01:33:30.784Z,993.95
2019-02-08T01:34:30.764Z,993.97
2019-02-08T01:35:30.746Z,993.93
2019-02-08T01:36:30.724Z,994.01
2019-02-08T01:37:30.725Z,994.03
2019-02-08T01:38:30.686Z,993.98
2019-02-08T01:39:30.666Z,993.95
2019-02-08T01:40:30.656Z,993.99
2019-02-08T01:41:30.635Z,993.98
2019-02-08T01:42:30.622Z,994.04
2019-02-08T01:43:30.591Z,994.02
2019-02-08T01:44:30.570Z,994.04
2019-02-08T01:45:30.559Z,994.05
2019-02-08T01:46:30.540Z,994.03
2019-02-08T01:47:30.517Z,994.02
2019-02-08T01:48:30.501Z,993.98
2019-02-08T01:49:30.485Z,994.00
2019-02-08T01:50:30.463Z,993.94
2019-02-08T01:51:30.440Z,993.98
2019-02-08T01:52:30.422Z,993.95
2019-02-08T01:53:30.407Z,993.98
2019-02-08T01:54:30.389Z,994.03
2019-02-08T01:55:30.368Z,994.01
2019-02-08T01:56:30.342Z,994.03
2019-02-08T01:57:30.331Z,994.03
2019-02-08T01:58:30.320Z,993.96
2019-02-08T01:59:30.286Z,993.95
2019-02-08T02:00:30.279Z,993.95
2019-02-08T02:01:30.250Z,993.94
2019-02-08T02:02:30.226Z,993.95
2019-02-08T02:03:30.214Z,993.98
2019-02-08T02:04:30.234Z,993.95
2019-02-08T02:05:30.174Z,994.00
2019-02-08T02:06:30.150Z,993.98
2019-02-08T02:07:30.129Z,993.99
2019-02-08T02:08:30.113Z,994.03
2019-02-08T02:09:30.093Z,994.02
2019-02-08T02:10:30.074Z,994.04
2019-02-08T02:11:30.061Z,994.03
2019-02-08T02:12:30.035Z,994.08
2019-02-08T02:13:30.018Z,994.06
2019-02-08T02:14:29.998Z,994.11
2019-02-08T02:15:29.978Z,994.11
2019-02-08T02:16:29.959Z,994.12
2019-02-08T02:17:29.941Z,994.08
2019-02-08T02:18:29.920Z,994.08
2019-02-08T02:19:29.911Z,994.08
2019-02-08T02:20:29.884Z,994.06
2019-02-08T02:21:29.863Z,994.12
2019-02-08T02:22:29.845Z,994.16
2019-02-08T02:23:29.823Z,994.10
2019-02-08T02:24:29.817Z,994.09
2019-02-08T02:25:29.789Z,994.09
2019-02-08T02:26:29.768Z,994.13
2019-02-08T02:27:29.750Z,994.14
2019-02-08T02:28:29.725Z,994.12
2019-02-08T02:29:29.710Z,994.15
2019-02-08T02:30:29.692Z,994.05
2019-02-08T02:31:29.685Z,994.06
2019-02-08T02:32:29.662Z,994.08
2019-02-08T02:33:29.634Z,994.11
2019-02-08T02:34:29.619Z,994.04
2019-02-08T02:35:29.603Z,994.06
2019-02-08T02:36:29.584Z,994.06
2019-02-08T02:37:29.559Z,994.06
2019-02-08T02:38:29.541Z,994.07
2019-02-08T02:39:29.520Z,994.08
2019-02-08T02:40:29.501Z,994.07
2019-02-08T02:41:29.488Z,994.12
2019-02-08T02:42:29.459Z,994.11
2019-02-08T02:43:29.445Z,994.14
2019-02-08T02:44:29.426Z,994.13
2019-02-08T02:45:29.404Z,994.14
2019-02-08T02:46:29.399Z,994.14
2019-02-08T02:47:29.365Z,994.11
2019-02-08T02:48:29.348Z,994.14
2019-02-08T02:49:29.332Z,994.08
2019-02-08T02:50:29.311Z,994.08
2019-02-08T02:51:29.291Z,994.11
2019-02-08T02:52:29.281Z,994.07
2019-02-08T02:53:29.252Z,994.11
2019-02-08T02:54:29.233Z,994.11
2019-02-08T02:55:29.230Z,994.11
2019-02-08T02:56:29.208Z,994.09
2019-02-08T02:57:29.188Z,994.06
2019-02-08T02:58:29.158Z,994.10
2019-02-08T02:59:29.137Z,994.10
2019-02-08T03:00:29.121Z,994.12
2019-02-08T03:01:29.094Z,994.14
2019-02-08T03:02:29.082Z,994.13
2019-02-08T03:03:30.745Z,994.13
2019-02-08T03:04:29.039Z,994.16
2019-02-08T03:05:29.022Z,994.12
2019-02-08T03:06:29.004Z,994.11
2019-02-08T03:07:28.995Z,994.13
2019-02-08T03:08:28.964Z,994.11
2019-02-08T03:09:28.944Z,994.00
2019-02-08T03:10:28.930Z,993.99
2019-02-08T03:11:28.909Z,993.98
2019-02-08T03:12:28.886Z,994.01
2019-02-08T03:13:28.867Z,994.00
2019-02-08T03:14:28.846Z,994.06
2019-02-08T03:15:28.832Z,994.04
2019-02-08T03:16:28.819Z,994.01
2019-02-08T03:17:28.843Z,994.02
2019-02-08T03:18:28.777Z,994.09
2019-02-08T03:19:28.751Z,994.09
2019-02-08T03:20:28.734Z,994.10
2019-02-08T03:21:28.720Z,994.07
2019-02-08T03:22:28.695Z,994.08
2019-02-08T03:23:28.679Z,994.04
2019-02-08T03:24:28.657Z,994.01
2019-02-08T03:25:30.249Z,994.03
2019-02-08T03:26:28.621Z,994.09
2019-02-08T03:27:28.597Z,994.04
2019-02-08T03:28:28.587Z,994.05
2019-02-08T03:29:28.564Z,994.07
2019-02-08T03:30:28.543Z,994.08
2019-02-08T03:31:28.526Z,994.07
2019-02-08T03:32:28.601Z,994.10
2019-02-08T03:33:28.493Z,994.08
2019-02-08T03:34:28.467Z,994.02
2019-02-08T03:35:28.457Z,994.12
2019-02-08T03:36:28.430Z,994.11
2019-02-08T03:37:28.416Z,994.08
2019-02-08T03:38:28.394Z,994.12
2019-02-08T03:39:28.371Z,994.08
2019-02-08T03:40:28.347Z,994.12
2019-02-08T03:41:28.335Z,994.14
2019-02-08T03:42:28.314Z,994.11
2019-02-08T03:43:28.305Z,994.13
2019-02-08T03:44:28.274Z,994.11
2019-02-08T03:45:28.254Z,994.17
2019-02-08T03:46:28.242Z,994.12
2019-02-08T03:47:28.221Z,994.13
2019-02-08T03:48:28.195Z,994.12
2019-02-08T03:49:28.176Z,994.12
2019-02-08T03:50:28.171Z,994.08
2019-02-08T03:51:28.139Z,994.13
2019-02-08T03:52:28.155Z,994.12
2019-02-08T03:53:28.104Z,994.08
2019-02-08T03:54:28.083Z,994.12
2019-02-08T03:55:28.068Z,994.07
2019-02-08T03:56:28.045Z,994.10
2019-02-08T03:57:28.027Z,994.12
2019-02-08T03:58:28.005Z,994.13
2019-02-08T03:59:27.990Z,994.09
2019-02-08T04:00:27.978Z,994.06
2019-02-08T04:01:27.950Z,994.07
2019-02-08T04:02:27.927Z,994.09
2019-02-08T04:03:27.926Z,994.05
2019-02-08T04:04:27.909Z,994.06
2019-02-08T04:05:27.889Z,994.04
2019-02-08T04:06:27.855Z,994.08
2019-02-08T04:07:27.835Z,994.06
2019-02-08T04:08:27.810Z,994.07
2019-02-08T04:09:27.793Z,994.00
2019-02-08T04:10:27.778Z,994.04
2019-02-08T04:11:27.754Z,994.06
2019-02-08T04:12:27.736Z,994.05
2019-02-08T04:13:27.717Z,994.03
2019-02-08T04:14:27.710Z,993.95
2019-02-08T04:15:27.679Z,993.99
2019-02-08T04:16:27.670Z,994.00
2019-02-08T04:17:27.643Z,994.07
2019-02-08T04:18:27.618Z,994.02
2019-02-08T04:19:27.605Z,994.03
2019-02-08T04:20:27.584Z,994.05
2019-02-08T04:21:27.566Z,994.05
2019-02-08T04:22:27.544Z,994.09
2019-02-08T04:23:27.529Z,994.10
2019-02-08T04:24:30.058Z,994.09
2019-02-08T04:25:27.494Z,994.12
2019-02-08T04:26:27.471Z,994.07
2019-02-08T04:27:27.448Z,994.12
2019-02-08T04:28:27.430Z,994.09
2019-02-08T04:29:27.413Z,994.13
2019-02-08T04:30:27.394Z,994.12
2019-02-08T04:31:27.369Z,994.16
2019-02-08T04:32:29.257Z,994.20
2019-02-08T04:33:27.333Z,994.17
2019-02-08T04:34:27.310Z,994.12
2019-02-08T04:35:27.311Z,994.09
2019-02-08T04:36:27.282Z,994.10
2019-02-08T04:37:27.256Z,994.11
2019-02-08T04:38:27.236Z,994.10
2019-02-08T04:39:27.223Z,994.10
2019-02-08T04:40:27.391Z,994.19
2019-02-08T04:41:28.771Z,994.11
2019-02-08T04:42:35.175Z,994.15
2019-02-08T04:43:27.135Z,994.16
2019-02-08T04:44:27.115Z,994.08
2019-02-08T04:45:27.117Z,994.13
2019-02-08T04:46:27.076Z,994.07
2019-02-08T04:47:27.076Z,994.11
2019-02-08T04:48:28.756Z,994.09
2019-02-08T04:49:27.025Z,994.11
2019-02-08T04:50:27.108Z,994.05
2019-02-08T04:51:26.987Z,994.05
2019-02-08T04:52:26.979Z,994.07
2019-02-08T04:53:26.952Z,994.08
2019-02-08T04:54:26.926Z,994.10
2019-02-08T04:55:26.911Z,994.11
2019-02-08T04:56:26.886Z,994.09
2019-02-08T04:57:26.920Z,994.09
2019-02-08T04:58:35.177Z,994.11
2019-02-08T04:59:26.845Z,994.13
2019-02-08T05:00:26.828Z,994.14
2019-02-08T05:01:26.804Z,994.12
2019-02-08T05:02:26.773Z,994.08
2019-02-08T05:03:26.758Z,994.09
2019-02-08T05:04:26.738Z,994.09
2019-02-08T05:05:26.717Z,994.08
2019-02-08T05:06:26.698Z,994.05
2019-02-08T05:07:26.688Z,994.06
2019-02-08T05:08:26.662Z,994.00
2019-02-08T05:09:26.638Z,994.06
2019-02-08T05:10:26.625Z,994.06
2019-02-08T05:11:26.600Z,994.06
2019-02-08T05:12:26.580Z,994.01
2019-02-08T05:13:26.562Z,994.02
2019-02-08T05:14:26.556Z,994.05
2019-02-08T05:15:26.521Z,994.02
2019-02-08T05:16:26.505Z,994.01
2019-02-08T05:17:26.489Z,993.99
2019-02-08T05:18:26.469Z,994.01
2019-02-08T05:19:26.459Z,994.00
2019-02-08T05:20:26.427Z,994.02
2019-02-08T05:21:26.410Z,994.02
2019-02-08T05:22:26.391Z,994.00
2019-02-08T05:23:26.371Z,994.01
2019-02-08T05:24:26.357Z,994.02
2019-02-08T05:25:26.331Z,994.00
2019-02-08T05:26:26.316Z,994.00
2019-02-08T05:27:26.298Z,994.00
2019-02-08T05:28:26.272Z,994.04
2019-02-08T05:29:26.257Z,993.99
2019-02-08T05:30:26.239Z,994.02
2019-02-08T05:31:26.216Z,993.98
2019-02-08T05:32:26.202Z,994.00
2019-02-08T05:33:26.175Z,994.01
2019-02-08T05:34:26.160Z,993.97
2019-02-08T05:35:26.140Z,994.00
2019-02-08T05:36:26.158Z,994.02
2019-02-08T05:37:26.107Z,994.04
2019-02-08T05:38:26.082Z,994.07
2019-02-08T05:39:26.078Z,993.99
2019-02-08T05:40:26.046Z,994.06
2019-02-08T05:41:26.026Z,994.12
2019-02-08T05:42:26.010Z,994.09
2019-02-08T05:43:25.986Z,994.09
2019-02-08T05:44:25.969Z,994.09
2019-02-08T05:45:25.965Z,994.08
2019-02-08T05:46:25.932Z,994.10
2019-02-08T05:47:25.913Z,994.10
2019-02-08T05:48:25.892Z,994.16
2019-02-08T05:49:25.875Z,994.11
2019-02-08T05:50:25.869Z,994.11
2019-02-08T05:51:25.849Z,994.17
2019-02-08T05:52:25.830Z,994.17
2019-02-08T05:53:25.802Z,994.15
2019-02-08T05:54:25.776Z,994.17
2019-02-08T05:55:25.763Z,994.16
2019-02-08T05:56:25.740Z,994.20
2019-02-08T05:57:25.721Z,994.22
2019-02-08T05:58:25.701Z,994.21
2019-02-08T05:59:25.693Z,994.23
2019-02-08T06:00:25.662Z,994.19
2019-02-08T06:01:25.644Z,994.15
2019-02-08T06:02:25.627Z,994.18
2019-02-08T06:03:25.606Z,994.18
2019-02-08T06:04:25.586Z,994.20
2019-02-08T06:05:25.576Z,994.19
2019-02-08T06:06:25.551Z,994.20
2019-02-08T06:07:25.527Z,994.16
2019-02-08T06:08:25.515Z,994.17
2019-02-08T06:09:25.498Z,994.10
2019-02-08T06:10:25.476Z,994.16
2019-02-08T06:11:25.454Z,994.18
2019-02-08T06:12:25.432Z,994.10
2019-02-08T06:13:25.420Z,994.10
2019-02-08T06:14:25.401Z,994.10
2019-02-08T06:15:25.374Z,994.09
2019-02-08T06:16:25.358Z,994.08
2019-02-08T06:17:25.337Z,994.12
2019-02-08T06:18:25.320Z,994.12
2019-02-08T06:19:25.308Z,994.09
2019-02-08T06:20:25.314Z,994.07
2019-02-08T06:21:25.269Z,994.08
2019-02-08T06:22:25.245Z,994.07
2019-02-08T06:23:25.230Z,994.04
2019-02-08T06:24:25.208Z,994.07
2019-02-08T06:25:25.205Z,994.05
2019-02-08T06:26:25.179Z,994.01
2019-02-08T06:27:25.176Z,994.04
2019-02-08T06:28:25.129Z,994.00
2019-02-08T06:29:25.110Z,994.03
2019-02-08T06:30:25.104Z,994.07
2019-02-08T06:31:25.072Z,994.06
2019-02-08T06:32:25.049Z,994.07
2019-02-08T06:33:25.036Z,994.13
2019-02-08T06:34:25.035Z,994.06
2019-02-08T06:35:24.993Z,994.08
2019-02-08T06:36:24.976Z,994.09
2019-02-08T06:37:24.967Z,994.09
2019-02-08T06:38:24.934Z,994.08
2019-02-08T06:39:24.919Z,994.11
2019-02-08T06:40:24.901Z,994.11
2019-02-08T06:41:24.885Z,994.13
2019-02-08T06:42:24.863Z,994.18
2019-02-08T06:43:24.839Z,994.18
2019-02-08T06:44:24.823Z,994.19
2019-02-08T06:45:24.808Z,994.21
2019-02-08T06:46:24.787Z,994.19
2019-02-08T06:47:24.765Z,994.25
2019-02-08T06:48:24.744Z,994.29
2019-02-08T06:49:24.729Z,994.29
2019-02-08T06:50:24.720Z,994.25
2019-02-08T06:51:24.710Z,994.32
2019-02-08T06:52:24.669Z,994.35
2019-02-08T06:53:24.649Z,994.30
2019-02-08T06:54:24.633Z,994.32
2019-02-08T06:55:24.607Z,994.35
2019-02-08T06:56:24.604Z,994.33
2019-02-08T06:57:24.571Z,994.30
2019-02-08T06:58:24.555Z,994.30
2019-02-08T06:59:24.533Z,994.36
2019-02-08T07:00:24.517Z,994.33
2019-02-08T07:01:24.498Z,994.37
2019-02-08T07:02:24.498Z,994.29
2019-02-08T07:03:24.458Z,994.29
2019-02-08T07:04:24.444Z,994.32
2019-02-08T07:05:24.420Z,994.31
2019-02-08T07:06:24.406Z,994.30
2019-02-08T07:07:24.382Z,994.31
2019-02-08T07:08:24.367Z,994.28
2019-02-08T07:09:24.371Z,994.30
2019-02-08T07:10:24.326Z,994.34
2019-02-08T07:11:24.304Z,994.34
2019-02-08T07:12:24.284Z,994.34
2019-02-08T07:13:24.271Z,994.33
2019-02-08T07:14:24.246Z,994.41
2019-02-08T07:15:24.232Z,994.39
2019-02-08T07:16:24.217Z,994.36
2019-02-08T07:17:24.204Z,994.39
2019-02-08T07:18:24.176Z,994.35
2019-02-08T07:19:24.160Z,994.38
2019-02-08T07:20:24.136Z,994.37
2019-02-08T07:21:24.110Z,994.38
2019-02-08T07:22:24.096Z,994.41
2019-02-08T07:23:24.075Z,994.34
2019-02-08T07:24:24.057Z,994.35
2019-02-08T07:25:24.046Z,994.27
2019-02-08T07:26:24.013Z,994.24
2019-02-08T07:27:24.000Z,994.23
2019-02-08T07:28:23.982Z,994.22
2019-02-08T07:29:23.961Z,994.22
2019-02-08T07:30:23.938Z,994.16
2019-02-08T07:31:23.926Z,994.21
2019-02-08T07:32:23.904Z,994.25
2019-02-08T07:33:23.887Z,994.25
2019-02-08T07:34:23.867Z,994.25
2019-02-08T07:35:23.856Z,994.25
2019-02-08T07:36:23.826Z,994.23
2019-02-08T07:37:23.824Z,994.24
2019-02-08T07:38:23.790Z,994.25
2019-02-08T07:39:23.771Z,994.34
2019-02-08T07:40:23.754Z,994.25
2019-02-08T07:41:23.739Z,994.29
2019-02-08T07:42:23.711Z,994.29
2019-02-08T07:43:23.694Z,994.32
2019-02-08T07:44:23.676Z,994.34
2019-02-08T07:45:23.660Z,994.40
2019-02-08T07:46:23.643Z,994.36
2019-02-08T07:47:23.625Z,994.34
2019-02-08T07:48:23.601Z,994.32
2019-02-08T07:49:23.582Z,994.27
2019-02-08T07:50:23.562Z,994.32
2019-02-08T07:51:23.546Z,994.26
2019-02-08T07:52:23.521Z,994.19
2019-02-08T07:53:23.504Z,994.24
2019-02-08T07:54:23.486Z,994.23
2019-02-08T07:55:26.113Z,994.16
2019-02-08T07:56:23.456Z,994.20
2019-02-08T07:57:23.437Z,994.20
2019-02-08T07:58:23.410Z,994.17
2019-02-08T07:59:23.397Z,994.21
2019-02-08T08:00:23.373Z,994.18
2019-02-08T08:01:23.363Z,994.14
2019-02-08T08:02:23.337Z,994.21
2019-02-08T08:03:23.325Z,994.21
2019-02-08T08:04:23.298Z,994.26
2019-02-08T08:05:23.280Z,994.20
2019-02-08T08:06:23.262Z,994.25
2019-02-08T08:07:23.242Z,994.23
2019-02-08T08:08:23.227Z,994.17
2019-02-08T08:09:23.204Z,994.23
2019-02-08T08:10:23.186Z,994.35
2019-02-08T08:11:23.168Z,994.31
2019-02-08T08:12:23.154Z,994.31
2019-02-08T08:13:23.134Z,994.31
2019-02-08T08:14:23.110Z,994.30
2019-02-08T08:15:23.097Z,994.25
2019-02-08T08:16:23.074Z,994.28
2019-02-08T08:17:23.063Z,994.27
2019-02-08T08:18:23.039Z,994.29
2019-02-08T08:19:23.022Z,994.29
2019-02-08T08:20:22.994Z,994.35
2019-02-08T08:21:22.984Z,994.33
2019-02-08T08:22:22.972Z,994.36
2019-02-08T08:23:22.947Z,994.28
2019-02-08T08:24:22.928Z,994.31
2019-02-08T08:25:22.922Z,994.36
2019-02-08T08:26:22.890Z,994.28
2019-02-08T08:27:22.874Z,994.30
2019-02-08T08:28:22.860Z,994.33
2019-02-08T08:29:22.835Z,994.29
2019-02-08T08:30:22.822Z,994.30
2019-02-08T08:31:22.800Z,994.24
2019-02-08T08:32:22.784Z,994.34
2019-02-08T08:33:22.799Z,994.22
2019-02-08T08:34:22.754Z,994.27
2019-02-08T08:35:22.725Z,994.24
2019-02-08T08:36:22.732Z,994.32
2019-02-08T08:37:22.692Z,994.22
2019-02-08T08:38:22.673Z,994.26
2019-02-08T08:39:22.659Z,994.27
2019-02-08T08:40:22.637Z,994.26
2019-02-08T08:41:22.618Z,994.25
2019-02-08T08:42:22.601Z,994.28
2019-02-08T08:43:22.583Z,994.23
2019-02-08T08:44:22.566Z,994.30
2019-02-08T08:45:22.552Z,994.28
2019-02-08T08:46:22.527Z,994.29
2019-02-08T08:47:22.515Z,994.34
2019-02-08T08:48:22.492Z,994.28
2019-02-08T08:49:22.476Z,994.27
2019-02-08T08:50:22.458Z,994.23
2019-02-08T08:51:22.443Z,994.26
2019-02-08T08:52:22.420Z,994.22
2019-02-08T08:53:22.409Z,994.28
2019-02-08T08:54:22.387Z,994.25
2019-02-08T08:55:22.369Z,994.33
2019-02-08T08:56:22.351Z,994.18
2019-02-08T08:57:22.341Z,994.21
2019-02-08T08:58:22.312Z,994.18
2019-02-08T08:59:22.300Z,994.21
2019-02-08T09:00:22.279Z,994.21
2019-02-08T09:01:22.271Z,994.24
2019-02-08T09:02:23.791Z,994.24
2019-02-08T09:03:22.225Z,994.24
2019-02-08T09:04:22.217Z,994.18
2019-02-08T09:05:22.189Z,994.23
2019-02-08T09:06:22.179Z,994.20
2019-02-08T09:07:22.160Z,994.22
2019-02-08T09:08:22.148Z,994.21
2019-02-08T09:09:22.120Z,994.23
2019-02-08T09:10:22.100Z,994.23
2019-02-08T09:11:22.084Z,994.19
2019-02-08T09:12:22.063Z,994.20
2019-02-08T09:13:22.049Z,994.22
2019-02-08T09:14:22.038Z,994.27
2019-02-08T09:15:22.015Z,994.15
2019-02-08T09:16:21.990Z,994.16
2019-02-08T09:17:21.973Z,994.20
2019-02-08T09:18:21.974Z,994.19
2019-02-08T09:19:21.936Z,994.14
2019-02-08T09:20:21.925Z,994.14
2019-02-08T09:21:21.903Z,994.16
2019-02-08T09:22:21.882Z,994.12
2019-02-08T09:23:21.866Z,994.12
2019-02-08T09:24:21.848Z,994.13
2019-02-08T09:25:21.832Z,994.18
2019-02-08T09:26:22.190Z,994.14
2019-02-08T09:27:21.801Z,994.09
2019-02-08T09:28:21.775Z,994.15
2019-02-08T09:29:21.763Z,994.10
2019-02-08T09:30:21.738Z,994.10
2019-02-08T09:31:21.721Z,994.10
2019-02-08T09:32:21.702Z,994.08
2019-02-08T09:33:21.691Z,994.10
2019-02-08T09:34:21.662Z,994.07
2019-02-08T09:35:21.645Z,994.11
2019-02-08T09:36:21.636Z,994.09
2019-02-08T09:37:21.612Z,994.08
2019-02-08T09:38:21.596Z,994.05
2019-02-08T09:39:21.578Z,994.09
2019-02-08T09:40:21.562Z,994.08
2019-02-08T09:41:21.546Z,994.06
2019-02-08T09:42:21.538Z,994.04
2019-02-08T09:43:21.506Z,993.99
2019-02-08T09:44:21.491Z,993.96
2019-02-08T09:45:21.474Z,993.89
2019-02-08T09:46:21.448Z,993.97
2019-02-08T09:47:21.439Z,993.93
2019-02-08T09:48:21.419Z,993.99
2019-02-08T09:49:21.401Z,993.96
2019-02-08T09:50:21.386Z,993.99
2019-02-08T09:51:21.366Z,993.93
2019-02-08T09:52:21.343Z,993.98
2019-02-08T09:53:21.338Z,993.97
2019-02-08T09:54:21.316Z,993.92
2019-02-08T09:55:21.294Z,993.93
2019-02-08T09:56:21.275Z,993.86
2019-02-08T09:57:21.260Z,993.91
2019-02-08T09:58:21.246Z,993.91
2019-02-08T09:59:21.226Z,993.91
2019-02-08T10:00:21.211Z,993.95
2019-02-08T10:01:21.192Z,993.90
2019-02-08T10:02:21.176Z,993.87
2019-02-08T10:03:21.150Z,993.82
2019-02-08T10:04:21.139Z,993.82
2019-02-08T10:05:21.121Z,993.86
2019-02-08T10:06:21.101Z,993.86
2019-02-08T10:07:21.086Z,993.86
2019-02-08T10:08:21.978Z,993.83
2019-02-08T10:09:21.048Z,993.81
2019-02-08T10:10:21.040Z,993.80
2019-02-08T10:11:21.021Z,993.79
2019-02-08T10:12:21.041Z,993.80
2019-02-08T10:13:20.986Z,993.83
2019-02-08T10:14:20.965Z,993.87
2019-02-08T10:15:20.956Z,993.88
2019-02-08T10:16:20.939Z,993.83
2019-02-08T10:17:20.925Z,993.87
2019-02-08T10:18:20.901Z,993.86
2019-02-08T10:19:20.887Z,993.93
2019-02-08T10:20:20.869Z,993.92
2019-02-08T10:21:20.846Z,993.91
2019-02-08T10:22:20.828Z,993.92
2019-02-08T10:23:20.810Z,993.94
2019-02-08T10:24:20.802Z,993.90
2019-02-08T10:25:20.778Z,993.83
2019-02-08T10:26:20.763Z,993.90
2019-02-08T10:27:20.745Z,993.84
2019-02-08T10:28:20.729Z,993.80
2019-02-08T10:29:20.711Z,993.76
2019-02-08T10:30:20.694Z,993.78
2019-02-08T10:31:22.306Z,993.76
2019-02-08T10:32:20.668Z,993.76
2019-02-08T10:33:20.647Z,993.77
2019-02-08T10:34:20.625Z,993.74
2019-02-08T10:35:20.621Z,993.76
2019-02-08T10:36:20.594Z,993.74
2019-02-08T10:37:20.590Z,993.69
2019-02-08T10:38:20.569Z,993.70
2019-02-08T10:39:20.543Z,993.74
2019-02-08T10:40:20.525Z,993.74
2019-02-08T10:41:20.515Z,993.73
2019-02-08T10:42:20.499Z,993.68
2019-02-08T10:43:20.476Z,993.71
2019-02-08T10:44:20.466Z,993.69
2019-02-08T10:45:20.440Z,993.72
2019-02-08T10:46:20.426Z,993.75
2019-02-08T10:47:20.419Z,993.69
2019-02-08T10:48:20.392Z,993.70
2019-02-08T10:49:20.384Z,993.67
2019-02-08T10:50:20.374Z,993.65
2019-02-08T10:51:20.339Z,993.61
2019-02-08T10:52:20.326Z,993.54
2019-02-08T10:53:20.315Z,993.58
2019-02-08T10:54:20.293Z,993.57
2019-02-08T10:55:20.281Z,993.53
2019-02-08T10:56:20.269Z,993.53
2019-02-08T10:57:20.245Z,993.51
2019-02-08T10:58:20.227Z,993.53
2019-02-08T10:59:20.216Z,993.52
2019-02-08T11:00:20.195Z,993.53
2019-02-08T11:01:20.184Z,993.52
2019-02-08T11:02:20.173Z,993.62
2019-02-08T11:03:20.145Z,993.54
2019-02-08T11:04:20.133Z,993.54
2019-02-08T11:05:20.116Z,993.50
2019-02-08T11:06:20.104Z,993.49
2019-02-08T11:07:27.485Z,993.55
2019-02-08T11:08:20.079Z,993.45
2019-02-08T11:09:20.054Z,993.49
2019-02-08T11:10:20.036Z,993.52
2019-02-08T11:11:20.022Z,993.49
2019-02-08T11:12:20.006Z,993.55
2019-02-08T11:13:19.988Z,993.52
2019-02-08T11:14:19.972Z,993.51
2019-02-08T11:15:19.959Z,993.48
2019-02-08T11:16:19.946Z,993.48
2019-02-08T11:17:19.929Z,993.56
2019-02-08T11:18:19.920Z,993.45
2019-02-08T11:19:19.896Z,993.42
2019-02-08T11:20:19.887Z,993.43
2019-02-08T11:21:19.870Z,993.32
2019-02-08T11:22:19.847Z,993.38
2019-02-08T11:23:19.839Z,993.38
2019-02-08T11:24:19.812Z,993.34
2019-02-08T11:25:19.796Z,993.32
2019-02-08T11:26:23.054Z,993.33
2019-02-08T11:27:19.773Z,993.35
2019-02-08T11:28:19.754Z,993.37
2019-02-08T11:29:19.740Z,993.35
2019-02-08T11:30:19.725Z,993.28
2019-02-08T11:31:19.708Z,993.27
2019-02-08T11:32:19.690Z,993.27
2019-02-08T11:33:19.685Z,993.20
2019-02-08T11:34:19.667Z,993.19
2019-02-08T11:35:19.648Z,993.22
2019-02-08T11:36:19.630Z,993.12
2019-02-08T11:37:19.618Z,993.12
2019-02-08T11:38:19.601Z,993.11
2019-02-08T11:39:19.588Z,993.05
2019-02-08T11:40:19.580Z,993.10
2019-02-08T11:41:19.552Z,993.05
2019-02-08T11:42:19.536Z,993.12
2019-02-08T11:43:19.520Z,993.09
2019-02-08T11:44:19.506Z,993.03
2019-02-08T11:45:19.494Z,993.03
2019-02-08T11:46:19.477Z,992.99
2019-02-08T11:47:19.459Z,992.97
2019-02-08T11:48:19.443Z,992.91
2019-02-08T11:49:19.483Z,992.94
2019-02-08T11:50:19.411Z,992.93
2019-02-08T11:51:19.397Z,992.87
2019-02-08T11:52:19.381Z,992.90
2019-02-08T11:53:19.371Z,992.81
2019-02-08T11:54:19.349Z,992.81
2019-02-08T11:55:19.331Z,992.82
2019-02-08T11:56:19.320Z,992.78
2019-02-08T11:57:19.303Z,992.74
2019-02-08T11:58:19.304Z,992.74
2019-02-08T11:59:19.283Z,992.67
2019-02-08T12:00:19.254Z,992.66
2019-02-08T12:01:19.240Z,992.62
2019-02-08T12:02:19.223Z,992.67
2019-02-08T12:03:19.204Z,992.64
2019-02-08T12:04:19.191Z,992.58
2019-02-08T12:05:19.191Z,992.60
2019-02-08T12:06:19.172Z,992.69
2019-02-08T12:07:19.160Z,992.55
2019-02-08T12:08:19.138Z,992.60
2019-02-08T12:09:19.118Z,992.53
2019-02-08T12:10:19.096Z,992.52
2019-02-08T12:11:19.082Z,992.47
2019-02-08T12:12:19.074Z,992.48
2019-02-08T12:13:19.053Z,992.51
2019-02-08T12:14:19.040Z,992.43
2019-02-08T12:15:19.041Z,992.38
2019-02-08T12:16:19.010Z,992.41
2019-02-08T12:17:18.993Z,992.38
2019-02-08T12:18:18.975Z,992.42
2019-02-08T12:19:18.960Z,992.40
2019-02-08T12:20:18.949Z,992.41
2019-02-08T12:21:18.965Z,992.46
2019-02-08T12:22:18.916Z,992.40
2019-02-08T12:23:18.892Z,992.34
2019-02-08T12:24:18.881Z,992.28
2019-02-08T12:25:18.882Z,992.29
2019-02-08T12:26:18.853Z,992.36
2019-02-08T12:27:18.833Z,992.35
2019-02-08T12:28:18.820Z,992.38